createdAt,value
2018-12-20T00:00:17.400Z,62.53
2018-12-20T00:01:17.311Z,62.25
2018-12-20T00:02:17.429Z,62.15
2018-12-20T00:03:17.287Z,62.82
2018-12-20T00:04:17.362Z,62.63
2018-12-20T00:05:17.285Z,62.34
2018-12-20T00:06:17.314Z,62.44
2018-12-20T00:07:17.245Z,62.44
2018-12-20T00:08:17.314Z,62.06
2018-12-20T00:09:17.150Z,61.87
2018-12-20T00:10:17.137Z,61.87
2018-12-20T00:11:17.258Z,61.3
2018-12-20T00:12:17.167Z,60.64
2018-12-20T00:13:16.842Z,60.55
2018-12-20T00:14:17.208Z,59.5
2018-12-20T00:15:17.156Z,59.6
2018-12-20T00:16:17.130Z,59.88
2018-12-20T00:17:17.137Z,59.5
2018-12-20T00:18:17.001Z,59.88
2018-12-20T00:19:16.792Z,59.88
2018-12-20T00:20:16.952Z,59.79
2018-12-20T00:21:17.026Z,59.5
2018-12-20T00:22:16.940Z,59.98
2018-12-20T00:23:16.927Z,59.6
2018-12-20T00:24:16.988Z,59.69
2018-12-20T00:25:16.900Z,59.79
2018-12-20T00:26:16.918Z,59.03
2018-12-20T00:27:16.917Z,59.12
2018-12-20T00:28:16.555Z,59.5
2018-12-20T00:29:16.935Z,59.31
2018-12-20T00:30:16.878Z,59.12
2018-12-20T00:31:16.783Z,58.94
2018-12-20T00:32:16.839Z,58.47
2018-12-20T00:33:16.900Z,58.56
2018-12-20T00:34:16.828Z,58.28
2018-12-20T00:35:16.831Z,58.28
2018-12-20T00:36:16.838Z,57.99
2018-12-20T00:37:16.917Z,58.09
2018-12-20T00:38:16.795Z,58.37
2018-12-20T00:39:16.737Z,57.8
2018-12-20T00:40:16.610Z,57.42
2018-12-20T00:41:16.834Z,57.14
2018-12-20T00:42:16.556Z,57.61
2018-12-20T00:43:16.571Z,57.14
2018-12-20T00:44:16.722Z,57.14
2018-12-20T00:45:16.588Z,57.52
2018-12-20T00:46:16.531Z,56.95
2018-12-20T00:47:16.462Z,57.14
2018-12-20T00:48:16.471Z,57.14
2018-12-20T00:49:16.544Z,56.85
2018-12-20T00:50:16.518Z,56.57
2018-12-20T00:51:16.179Z,56.48
2018-12-20T00:52:16.405Z,56.85
2018-12-20T00:53:16.363Z,56.95
2018-12-20T00:54:16.576Z,56.85
2018-12-20T00:55:16.346Z,56.85
2018-12-20T00:56:16.301Z,56.57
2018-12-20T00:57:16.388Z,56.85
2018-12-20T00:58:16.292Z,57.14
2018-12-20T00:59:16.123Z,57.23
2018-12-20T01:00:16.294Z,57.61
2018-12-20T01:01:16.418Z,57.99
2018-12-20T01:02:16.295Z,58.28
2018-12-20T01:03:16.229Z,58.28
2018-12-20T01:04:16.165Z,58.18
2018-12-20T01:05:16.149Z,58.37
2018-12-20T01:06:16.337Z,58.37
2018-12-20T01:07:16.266Z,58.75
2018-12-20T01:08:15.954Z,59.22
2018-12-20T01:09:16.319Z,59.69
2018-12-20T01:10:16.054Z,59.98
2018-12-20T01:11:16.213Z,60.83
2018-12-20T01:12:16.016Z,61.4
2018-12-20T01:13:16.000Z,61.3
2018-12-20T01:14:15.982Z,62.44
2018-12-20T01:15:15.993Z,62.44
2018-12-20T01:16:15.950Z,62.34
2018-12-20T01:17:15.928Z,62.53
2018-12-20T01:18:16.186Z,63.29
2018-12-20T01:19:16.030Z,63.57
2018-12-20T01:20:16.012Z,63.39
2018-12-20T01:21:16.100Z,63.01
2018-12-20T01:22:15.842Z,63.39
2018-12-20T01:23:16.051Z,63.29
2018-12-20T01:24:15.846Z,63.1
2018-12-20T01:25:15.834Z,63.2
2018-12-20T01:26:15.780Z,63.39
2018-12-20T01:27:15.757Z,62.72
2018-12-20T01:28:15.837Z,62.72
2018-12-20T01:29:15.463Z,62.25
2018-12-20T01:30:15.697Z,62.15
2018-12-20T01:31:16.048Z,61.87
2018-12-20T01:32:15.701Z,61.3
2018-12-20T01:33:15.783Z,61.87
2018-12-20T01:34:15.765Z,61.77
2018-12-20T01:35:15.854Z,62.15
2018-12-20T01:36:15.765Z,62.25
2018-12-20T01:37:15.688Z,62.53
2018-12-20T01:38:15.608Z,62.53
2018-12-20T01:39:15.672Z,62.72
2018-12-20T01:40:15.752Z,62.53
2018-12-20T01:41:15.589Z,63.2
2018-12-20T01:42:15.725Z,63.2
2018-12-20T01:43:15.820Z,62.82
2018-12-20T01:44:15.749Z,63.1
2018-12-20T01:45:15.825Z,63.76
2018-12-20T01:46:15.711Z,64.42
2018-12-20T01:47:15.552Z,64.42
2018-12-20T01:48:15.650Z,64.42
2018-12-20T01:49:15.405Z,65.09
2018-12-20T01:50:15.533Z,65.18
2018-12-20T01:51:15.582Z,65.84
2018-12-20T01:52:15.346Z,65.66
2018-12-20T01:53:15.383Z,67.17
2018-12-20T01:54:15.372Z,67.45
2018-12-20T01:55:15.253Z,67.83
2018-12-20T01:56:15.494Z,68.77
2018-12-20T01:57:15.376Z,69.72
2018-12-20T01:58:15.188Z,70.67
2018-12-20T01:59:15.262Z,70.76
2018-12-20T02:00:15.421Z,70.76
2018-12-20T02:01:15.290Z,70.2
2018-12-20T02:02:15.242Z,70.1
2018-12-20T02:03:15.214Z,71.14
2018-12-20T02:04:14.974Z,71.61
2018-12-20T02:05:15.117Z,71.52
2018-12-20T02:06:15.126Z,71.61
2018-12-20T02:07:15.035Z,72.28
2018-12-20T02:08:15.057Z,72.28
2018-12-20T02:09:15.095Z,73.98
2018-12-20T02:10:14.985Z,74.55
2018-12-20T02:11:15.055Z,75.31
2018-12-20T02:12:14.939Z,75.21
2018-12-20T02:13:15.046Z,75.21
2018-12-20T02:14:14.922Z,75.02
2018-12-20T02:15:14.683Z,74.55
2018-12-20T02:16:15.002Z,73.79
2018-12-20T02:17:14.893Z,73.6
2018-12-20T02:18:15.036Z,72.85
2018-12-20T02:19:15.044Z,72.09
2018-12-20T02:20:14.830Z,71.23
2018-12-20T02:21:14.893Z,70.2
2018-12-20T02:22:14.765Z,70.29
2018-12-20T02:23:14.854Z,70.86
2018-12-20T02:24:14.755Z,70.48
2018-12-20T02:25:14.701Z,70.57
2018-12-20T02:26:14.707Z,70.67
2018-12-20T02:27:14.891Z,70.39
2018-12-20T02:28:14.792Z,70.57
2018-12-20T02:29:14.708Z,71.14
2018-12-20T02:30:14.941Z,71.14
2018-12-20T02:31:14.650Z,70.48
2018-12-20T02:32:14.952Z,70.67
2018-12-20T02:33:14.573Z,70.01
2018-12-20T02:34:14.925Z,69.44
2018-12-20T02:35:14.847Z,70.01
2018-12-20T02:36:14.731Z,70.01
2018-12-20T02:37:14.746Z,70.48
2018-12-20T02:38:14.759Z,71.04
2018-12-20T02:39:14.510Z,71.99
2018-12-20T02:40:14.814Z,72.85
2018-12-20T02:41:14.468Z,73.13
2018-12-20T02:42:14.691Z,73.6
2018-12-20T02:43:14.519Z,73.41
2018-12-20T02:44:14.530Z,73.13
2018-12-20T02:45:14.338Z,73.22
2018-12-20T02:46:14.425Z,73.6
2018-12-20T02:47:14.529Z,73.5
2018-12-20T02:48:14.553Z,73.03
2018-12-20T02:49:14.503Z,73.69
2018-12-20T02:50:14.256Z,73.75
2018-12-20T02:51:14.363Z,73.6
2018-12-20T02:52:14.614Z,73.98
2018-12-20T02:53:14.241Z,74.93
2018-12-20T02:54:14.203Z,75.68
2018-12-20T02:55:14.384Z,76.91
2018-12-20T02:56:14.256Z,77.58
2018-12-20T02:57:14.430Z,77.58
2018-12-20T02:58:14.395Z,76.25
2018-12-20T02:59:14.448Z,75.12
2018-12-20T03:00:14.068Z,75.21
2018-12-20T03:01:14.161Z,75.02
2018-12-20T03:02:14.083Z,74.93
2018-12-20T03:03:14.260Z,75.17
2018-12-20T03:04:14.041Z,75.68
2018-12-20T03:05:14.039Z,75.68
2018-12-20T03:06:14.172Z,75.87
2018-12-20T03:07:14.177Z,75.78
2018-12-20T03:08:14.001Z,75.96
2018-12-20T03:09:14.182Z,75.68
2018-12-20T03:10:14.006Z,75.31
2018-12-20T03:11:14.001Z,75.68
2018-12-20T03:12:13.857Z,76.34
2018-12-20T03:13:13.989Z,77.01
2018-12-20T03:14:13.924Z,76.25
2018-12-20T03:15:22.496Z,76.06
2018-12-20T03:16:13.822Z,75.68
2018-12-20T03:17:13.854Z,75.26
2018-12-20T03:18:13.924Z,73.85
2018-12-20T03:19:13.728Z,73.75
2018-12-20T03:20:13.922Z,72.66
2018-12-20T03:21:13.687Z,71.9
2018-12-20T03:22:14.085Z,71.77
2018-12-20T03:23:14.396Z,71.48
2018-12-20T03:24:13.891Z,71.77
2018-12-20T03:25:13.686Z,71.42
2018-12-20T03:26:13.637Z,71.3
2018-12-20T03:27:13.600Z,71.11
2018-12-20T03:28:13.567Z,71.01
2018-12-20T03:29:13.320Z,70.54
2018-12-20T03:30:13.701Z,70.06
2018-12-20T03:31:13.803Z,69.49
2018-12-20T03:32:13.568Z,68.65
2018-12-20T03:33:13.474Z,67.98
2018-12-20T03:34:13.635Z,67.51
2018-12-20T03:35:13.710Z,67.03
2018-12-20T03:36:13.449Z,66.94
2018-12-20T03:37:13.622Z,67.51
2018-12-20T03:38:13.532Z,67.32
2018-12-20T03:39:13.720Z,67.51
2018-12-20T03:40:13.639Z,67.41
2018-12-20T03:41:13.517Z,66.94
2018-12-20T03:42:13.530Z,66.75
2018-12-20T03:43:13.594Z,67.03
2018-12-20T03:44:13.270Z,66.85
2018-12-20T03:45:15.774Z,66.75
2018-12-20T03:46:13.566Z,66.85
2018-12-20T03:47:13.267Z,67.22
2018-12-20T03:48:13.116Z,67.32
2018-12-20T03:49:13.362Z,67.6
2018-12-20T03:50:13.253Z,66.94
2018-12-20T03:51:13.513Z,66.56
2018-12-20T03:52:13.299Z,66.75
2018-12-20T03:53:13.512Z,65.72
2018-12-20T03:54:13.171Z,65.72
2018-12-20T03:55:13.387Z,65.43
2018-12-20T03:56:13.358Z,66
2018-12-20T03:57:13.075Z,66.09
2018-12-20T03:58:13.060Z,65.62
2018-12-20T03:59:13.274Z,65.05
2018-12-20T04:00:13.095Z,64.48
2018-12-20T04:01:12.956Z,63.82
2018-12-20T04:02:13.145Z,63.35
2018-12-20T04:03:12.925Z,62.4
2018-12-20T04:04:13.160Z,62.59
2018-12-20T04:05:13.074Z,62.78
2018-12-20T04:06:12.958Z,62.88
2018-12-20T04:07:12.849Z,63.26
2018-12-20T04:08:13.019Z,62.97
2018-12-20T04:09:13.001Z,62.88
2018-12-20T04:10:12.895Z,62.31
2018-12-20T04:11:12.917Z,62.5
2018-12-20T04:12:12.763Z,62.02
2018-12-20T04:13:12.965Z,61.36
2018-12-20T04:14:12.719Z,61.18
2018-12-20T04:15:12.921Z,61.18
2018-12-20T04:16:12.808Z,60.89
2018-12-20T04:17:12.717Z,60.89
2018-12-20T04:18:12.915Z,60.61
2018-12-20T04:19:12.936Z,60.42
2018-12-20T04:20:12.766Z,60.52
2018-12-20T04:21:12.797Z,60.42
2018-12-20T04:22:12.790Z,60.33
2018-12-20T04:23:12.309Z,60.14
2018-12-20T04:24:12.659Z,60.89
2018-12-20T04:25:12.783Z,61.18
2018-12-20T04:26:12.918Z,61.36
2018-12-20T04:27:12.870Z,61.18
2018-12-20T04:28:12.493Z,61.36
2018-12-20T04:29:12.754Z,62.4
2018-12-20T04:30:12.509Z,63.26
2018-12-20T04:31:12.759Z,62.97
2018-12-20T04:32:12.393Z,63.35
2018-12-20T04:33:12.693Z,62.5
2018-12-20T04:34:12.672Z,62.78
2018-12-20T04:35:12.514Z,62.59
2018-12-20T04:36:12.338Z,62.5
2018-12-20T04:37:12.561Z,62.4
2018-12-20T04:38:12.086Z,63.07
2018-12-20T04:39:12.060Z,64.11
2018-12-20T04:40:12.240Z,63.82
2018-12-20T04:41:12.293Z,64.11
2018-12-20T04:42:12.206Z,64.01
2018-12-20T04:43:12.515Z,64.58
2018-12-20T04:44:12.408Z,65.05
2018-12-20T04:45:12.449Z,65.24
2018-12-20T04:46:12.374Z,65.34
2018-12-20T04:47:12.429Z,65.34
2018-12-20T04:48:12.499Z,65.62
2018-12-20T04:49:12.145Z,65.43
2018-12-20T04:50:12.208Z,65.62
2018-12-20T04:51:12.485Z,66
2018-12-20T04:52:12.289Z,65.91
2018-12-20T04:53:12.041Z,66.38
2018-12-20T04:54:11.961Z,65.72
2018-12-20T04:55:12.015Z,66.19
2018-12-20T04:56:12.108Z,65.43
2018-12-20T04:57:11.950Z,65.53
2018-12-20T04:58:12.085Z,65.53
2018-12-20T04:59:12.148Z,65.43
2018-12-20T05:00:12.018Z,65.43
2018-12-20T05:01:11.862Z,65.53
2018-12-20T05:02:11.994Z,65.91
2018-12-20T05:03:11.937Z,65.62
2018-12-20T05:04:11.891Z,65.53
2018-12-20T05:05:12.055Z,65.53
2018-12-20T05:06:11.944Z,65.34
2018-12-20T05:07:11.805Z,64.96
2018-12-20T05:08:12.158Z,64.77
2018-12-20T05:09:11.706Z,65.34
2018-12-20T05:10:11.795Z,65.43
2018-12-20T05:11:11.500Z,65.43
2018-12-20T05:12:12.054Z,66.47
2018-12-20T05:13:11.718Z,66.85
2018-12-20T05:14:12.074Z,68.17
2018-12-20T05:15:11.628Z,68.08
2018-12-20T05:16:11.852Z,68.46
2018-12-20T05:17:11.686Z,68.65
2018-12-20T05:18:11.545Z,69.02
2018-12-20T05:19:11.795Z,69.49
2018-12-20T05:20:11.682Z,69.49
2018-12-20T05:21:11.533Z,69.97
2018-12-20T05:22:11.667Z,70.44
2018-12-20T05:23:11.699Z,71.01
2018-12-20T05:24:11.434Z,71.48
2018-12-20T05:25:11.600Z,72.52
2018-12-20T05:26:11.373Z,72.71
2018-12-20T05:27:11.591Z,74.32
2018-12-20T05:28:11.379Z,73.94
2018-12-20T05:29:11.678Z,73.94
2018-12-20T05:30:11.547Z,73.75
2018-12-20T05:31:11.300Z,73.47
2018-12-20T05:32:11.496Z,72.52
2018-12-20T05:33:11.267Z,72.62
2018-12-20T05:34:11.248Z,72.8
2018-12-20T05:35:11.576Z,72.71
2018-12-20T05:36:11.341Z,72.8
2018-12-20T05:37:11.228Z,72.71
2018-12-20T05:38:11.177Z,73.18
2018-12-20T05:39:11.280Z,72.8
2018-12-20T05:40:11.346Z,72.24
2018-12-20T05:41:11.271Z,71.95
2018-12-20T05:42:11.333Z,71.67
2018-12-20T05:43:11.445Z,71.39
2018-12-20T05:44:10.912Z,70.82
2018-12-20T05:45:11.314Z,70.63
2018-12-20T05:46:11.095Z,69.68
2018-12-20T05:47:11.234Z,69.4
2018-12-20T05:48:11.182Z,68.55
2018-12-20T05:49:11.160Z,68.17
2018-12-20T05:50:10.712Z,67.7
2018-12-20T05:51:10.936Z,66.94
2018-12-20T05:52:10.670Z,66.66
2018-12-20T05:53:10.896Z,66
2018-12-20T05:54:10.989Z,66.19
2018-12-20T05:55:11.012Z,66.38
2018-12-20T05:56:10.843Z,66.75
2018-12-20T05:57:10.851Z,66.56
2018-12-20T05:58:10.635Z,66.75
2018-12-20T05:59:11.019Z,66.66
2018-12-20T06:00:10.900Z,65.43
2018-12-20T06:01:10.937Z,65.34
2018-12-20T06:02:10.747Z,65.72
2018-12-20T06:03:10.848Z,65.34
2018-12-20T06:04:11.592Z,65.05
2018-12-20T06:05:10.680Z,65.62
2018-12-20T06:06:10.660Z,65.43
2018-12-20T06:07:10.629Z,65.15
2018-12-20T06:08:10.827Z,64.39
2018-12-20T06:09:10.759Z,64.58
2018-12-20T06:10:10.587Z,64.11
2018-12-20T06:11:10.571Z,63.64
2018-12-20T06:12:10.657Z,63.82
2018-12-20T06:13:10.542Z,63.16
2018-12-20T06:14:10.741Z,63.35
2018-12-20T06:15:10.710Z,62.97
2018-12-20T06:16:15.442Z,62.4
2018-12-20T06:17:10.459Z,62.21
2018-12-20T06:18:10.442Z,61.74
2018-12-20T06:19:10.514Z,61.27
2018-12-20T06:20:10.615Z,60.8
2018-12-20T06:21:10.674Z,60.64
2018-12-20T06:22:10.385Z,61.36
2018-12-20T06:23:10.346Z,61.18
2018-12-20T06:24:10.330Z,61.18
2018-12-20T06:25:10.316Z,61.65
2018-12-20T06:26:10.352Z,61.27
2018-12-20T06:27:10.276Z,61.08
2018-12-20T06:28:10.259Z,61.4
2018-12-20T06:29:10.238Z,61.65
2018-12-20T06:30:10.218Z,61.83
2018-12-20T06:31:10.201Z,62.02
2018-12-20T06:32:10.183Z,61.74
2018-12-20T06:33:10.163Z,61.93
2018-12-20T06:34:10.183Z,62.12
2018-12-20T06:35:10.131Z,61.83
2018-12-20T06:36:10.111Z,61.93
2018-12-20T06:37:09.843Z,61.83
2018-12-20T06:38:10.075Z,62.02
2018-12-20T06:39:10.060Z,61.83
2018-12-20T06:40:09.806Z,62.12
2018-12-20T06:41:10.018Z,62.4
2018-12-20T06:42:10.005Z,62.4
2018-12-20T06:43:09.996Z,62.88
2018-12-20T06:44:09.970Z,62.88
2018-12-20T06:45:09.698Z,62.97
2018-12-20T06:46:09.930Z,63.35
2018-12-20T06:47:09.760Z,63.35
2018-12-20T06:48:09.891Z,63.82
2018-12-20T06:49:09.875Z,63.92
2018-12-20T06:50:09.857Z,64.11
2018-12-20T06:51:09.840Z,64.86
2018-12-20T06:52:09.900Z,65.91
2018-12-20T06:53:09.804Z,66.56
2018-12-20T06:54:09.783Z,67.13
2018-12-20T06:55:09.515Z,67.74
2018-12-20T06:56:09.743Z,68.08
2018-12-20T06:57:09.726Z,68.55
2018-12-20T06:58:09.710Z,69.25
2018-12-20T06:59:10.063Z,69.31
2018-12-20T07:00:09.670Z,68.77
2018-12-20T07:01:09.658Z,68.49
2018-12-20T07:02:09.389Z,67.79
2018-12-20T07:03:09.615Z,67.41
2018-12-20T07:04:09.598Z,67.32
2018-12-20T07:05:09.582Z,66.98
2018-12-20T07:06:09.570Z,66.75
2018-12-20T07:07:09.543Z,66.88
2018-12-20T07:08:09.529Z,66.85
2018-12-20T07:09:09.508Z,65.53
2018-12-20T07:10:09.489Z,65.47
2018-12-20T07:11:09.472Z,64.23
2018-12-20T07:12:09.455Z,64.04
2018-12-20T07:13:09.190Z,63.39
2018-12-20T07:14:09.419Z,62.25
2018-12-20T07:15:09.401Z,61.3
2018-12-20T07:16:09.378Z,60.55
2018-12-20T07:17:09.362Z,59.6
2018-12-20T07:18:09.350Z,59.5
2018-12-20T07:19:09.417Z,59.88
2018-12-20T07:20:09.312Z,59.03
2018-12-20T07:21:09.290Z,59.5
2018-12-20T07:22:09.365Z,59.79
2018-12-20T07:23:09.252Z,60.45
2018-12-20T07:24:09.237Z,61.3
2018-12-20T07:25:09.219Z,61.96
2018-12-20T07:26:09.197Z,63.39
2018-12-20T07:27:09.185Z,64.04
2018-12-20T07:28:09.218Z,64.33
2018-12-20T07:29:09.146Z,64.71
2018-12-20T07:30:09.128Z,64.52
2018-12-20T07:31:09.115Z,64.33
2018-12-20T07:32:09.090Z,63.76
2018-12-20T07:33:09.072Z,64.14
2018-12-20T07:34:09.052Z,64.04
2018-12-20T07:35:09.048Z,63.85
2018-12-20T07:36:09.021Z,63.76
2018-12-20T07:37:09.000Z,63.39
2018-12-20T07:38:08.993Z,63.85
2018-12-20T07:39:08.964Z,64.04
2018-12-20T07:40:08.944Z,63.95
2018-12-20T07:41:08.930Z,64.14
2018-12-20T07:42:08.908Z,64.23
2018-12-20T07:43:08.903Z,64.61
2018-12-20T07:44:08.875Z,64.52
2018-12-20T07:45:08.862Z,64.42
2018-12-20T07:46:08.842Z,64.33
2018-12-20T07:47:08.820Z,64.52
2018-12-20T07:48:08.803Z,64.71
2018-12-20T07:49:08.788Z,64.42
2018-12-20T07:50:08.766Z,64.61
2018-12-20T07:51:08.770Z,64.52
2018-12-20T07:52:08.734Z,64.33
2018-12-20T07:53:08.713Z,64.23
2018-12-20T07:54:08.695Z,64.04
2018-12-20T07:55:08.678Z,64.04
2018-12-20T07:56:08.656Z,64.04
2018-12-20T07:57:08.637Z,64.14
2018-12-20T07:58:08.622Z,64.14
2018-12-20T07:59:08.602Z,64.42
2018-12-20T08:00:08.586Z,64.61
2018-12-20T08:01:08.565Z,65.18
2018-12-20T08:02:08.551Z,65.28
2018-12-20T08:03:08.536Z,65.75
2018-12-20T08:04:08.518Z,65.75
2018-12-20T08:05:08.499Z,65.18
2018-12-20T08:06:08.484Z,64.42
2018-12-20T08:07:08.462Z,64.42
2018-12-20T08:08:08.439Z,64.33
2018-12-20T08:09:08.428Z,64.14
2018-12-20T08:10:08.410Z,64.04
2018-12-20T08:11:08.388Z,62.63
2018-12-20T08:12:08.372Z,61.77
2018-12-20T08:13:08.354Z,60.36
2018-12-20T08:14:08.334Z,59.88
2018-12-20T08:15:08.320Z,59.79
2018-12-20T08:16:08.300Z,59.5
2018-12-20T08:17:08.281Z,59.5
2018-12-20T08:18:08.269Z,59.98
2018-12-20T08:19:08.251Z,59.79
2018-12-20T08:20:08.243Z,59.31
2018-12-20T08:21:07.978Z,59.03
2018-12-20T08:22:08.200Z,58.18
2018-12-20T08:23:08.178Z,57.99
2018-12-20T08:24:08.158Z,57.42
2018-12-20T08:25:08.148Z,56.85
2018-12-20T08:26:08.126Z,56.01
2018-12-20T08:27:08.106Z,54.96
2018-12-20T08:28:08.100Z,54.42
2018-12-20T08:29:08.067Z,53.66
2018-12-20T08:30:08.071Z,53.07
2018-12-20T08:31:08.032Z,52.72
2018-12-20T08:32:08.017Z,52.34
2018-12-20T08:33:08.001Z,51.39
2018-12-20T08:34:07.983Z,51.01
2018-12-20T08:35:07.968Z,51.68
2018-12-20T08:36:07.955Z,51.68
2018-12-20T08:37:07.930Z,51.3
2018-12-20T08:38:07.909Z,49.88
2018-12-20T08:39:07.899Z,48.65
2018-12-20T08:40:07.929Z,48.46
2018-12-20T08:41:09.070Z,47.23
2018-12-20T08:42:07.846Z,47.8
2018-12-20T08:43:07.824Z,48.55
2018-12-20T08:44:07.805Z,48.65
2018-12-20T08:45:07.797Z,49.03
2018-12-20T08:46:07.522Z,48.84
2018-12-20T08:47:07.770Z,49.03
2018-12-20T08:48:07.739Z,49.31
2018-12-20T08:49:07.717Z,49.79
2018-12-20T08:50:07.703Z,49.03
2018-12-20T08:51:07.685Z,48.46
2018-12-20T08:52:07.668Z,47.8
2018-12-20T08:53:07.656Z,46.66
2018-12-20T08:54:07.629Z,45.81
2018-12-20T08:55:07.614Z,45.15
2018-12-20T08:56:07.371Z,45.24
2018-12-20T08:57:07.589Z,45.24
2018-12-20T08:58:07.561Z,44.96
2018-12-20T08:59:07.558Z,44.77
2018-12-20T09:00:07.528Z,45.9
2018-12-20T09:01:07.513Z,47.23
2018-12-20T09:02:07.494Z,48.46
2018-12-20T09:03:07.474Z,48.93
2018-12-20T09:04:07.458Z,48.65
2018-12-20T09:05:07.440Z,49.69
2018-12-20T09:06:07.424Z,50.16
2018-12-20T09:07:07.412Z,51.3
2018-12-20T09:08:07.389Z,53.19
2018-12-20T09:09:07.371Z,53.69
2018-12-20T09:10:07.361Z,53.85
2018-12-20T09:11:07.341Z,53.31
2018-12-20T09:12:07.323Z,53.5
2018-12-20T09:13:12.007Z,54.16
2018-12-20T09:14:07.296Z,54.35
2018-12-20T09:15:07.271Z,54.64
2018-12-20T09:16:07.256Z,55.11
2018-12-20T09:17:07.237Z,55.58
2018-12-20T09:18:07.224Z,55.4
2018-12-20T09:19:07.204Z,56.06
2018-12-20T09:20:06.943Z,57.48
2018-12-20T09:21:07.170Z,59.84
2018-12-20T09:22:07.154Z,61.08
2018-12-20T09:23:07.147Z,61.46
2018-12-20T09:24:07.119Z,62.02
2018-12-20T09:25:07.104Z,62.31
2018-12-20T09:26:06.836Z,63.35
2018-12-20T09:27:07.071Z,64.11
2018-12-20T09:28:07.053Z,64.68
2018-12-20T09:29:07.036Z,66.19
2018-12-20T09:30:07.020Z,68.46
2018-12-20T09:31:07.006Z,68.75
2018-12-20T09:32:06.986Z,70.36
2018-12-20T09:33:06.974Z,72.06
2018-12-20T09:34:06.954Z,74.62
2018-12-20T09:35:06.937Z,77.75
2018-12-20T09:36:06.920Z,79.93
2018-12-20T09:37:06.908Z,81.25
2018-12-20T09:38:06.887Z,81.92
2018-12-20T09:39:06.913Z,82.48
2018-12-20T09:40:06.853Z,82.48
2018-12-20T09:41:06.727Z,80.87
2018-12-20T09:42:06.826Z,80.11
2018-12-20T09:43:06.807Z,79.93
2018-12-20T09:44:06.790Z,79.36
2018-12-20T09:45:06.776Z,78.59
2018-12-20T09:46:06.756Z,77.75
2018-12-20T09:47:14.322Z,77.46
2018-12-20T09:48:06.727Z,77.56
2018-12-20T09:49:06.711Z,77.46
2018-12-20T09:50:06.692Z,76.7
2018-12-20T09:51:06.675Z,75.09
2018-12-20T09:52:06.661Z,74.15
2018-12-20T09:53:06.643Z,73.01
2018-12-20T09:54:06.631Z,72.06
2018-12-20T09:55:06.613Z,71.12
2018-12-20T09:56:06.593Z,70.17
2018-12-20T09:57:06.596Z,70.74
2018-12-20T09:58:06.562Z,71.5
2018-12-20T09:59:06.543Z,72.25
2018-12-20T10:00:06.531Z,72.44
2018-12-20T10:01:06.515Z,72.25
2018-12-20T10:02:06.496Z,71.21
2018-12-20T10:03:06.479Z,69.51
2018-12-20T10:04:06.471Z,68.08
2018-12-20T10:05:06.455Z,65.81
2018-12-20T10:06:06.432Z,63.82
2018-12-20T10:07:06.414Z,64.2
2018-12-20T10:08:06.403Z,64.23
2018-12-20T10:09:06.378Z,66.99
2018-12-20T10:10:06.368Z,70.01
2018-12-20T10:11:06.350Z,71.91
2018-12-20T10:12:06.333Z,71.62
2018-12-20T10:13:06.316Z,72
2018-12-20T10:14:06.301Z,74.28
2018-12-20T10:15:06.283Z,75.98
2018-12-20T10:16:06.268Z,77.31
2018-12-20T10:17:06.252Z,79.02
2018-12-20T10:18:06.236Z,80.82
2018-12-20T10:19:06.218Z,81.38
2018-12-20T10:20:06.207Z,83.09
2018-12-20T10:21:06.293Z,84.32
2018-12-20T10:22:06.170Z,84.04
2018-12-20T10:23:06.155Z,82.62
2018-12-20T10:24:06.137Z,80.91
2018-12-20T10:25:06.128Z,79.39
2018-12-20T10:26:06.108Z,78.92
2018-12-20T10:27:06.097Z,77.59
2018-12-20T10:28:06.074Z,76.55
2018-12-20T10:29:06.069Z,76.55
2018-12-20T10:30:06.045Z,76.36
2018-12-20T10:31:06.036Z,77.88
2018-12-20T10:32:06.009Z,78.64
2018-12-20T10:33:05.993Z,79.11
2018-12-20T10:34:05.736Z,82.47
2018-12-20T10:35:05.963Z,84.99
2018-12-20T10:36:05.946Z,90.15
2018-12-20T10:37:05.937Z,91.57
2018-12-20T10:38:05.914Z,89.44
2018-12-20T10:39:05.902Z,90.67
2018-12-20T10:40:05.882Z,89.63
2018-12-20T10:41:05.884Z,89.82
2018-12-20T10:42:05.855Z,91.52
2018-12-20T10:43:05.839Z,92.66
2018-12-20T10:44:05.827Z,92.19
2018-12-20T10:45:05.807Z,93.13
2018-12-20T10:46:05.790Z,93.04
2018-12-20T10:47:05.783Z,91.81
2018-12-20T10:48:05.773Z,91.05
2018-12-20T10:49:05.745Z,90.39
2018-12-20T10:50:05.728Z,91.76
2018-12-20T10:51:05.708Z,92.8
2018-12-20T10:52:05.697Z,94.98
2018-12-20T10:53:05.693Z,96.59
2018-12-20T10:54:05.425Z,97.45
2018-12-20T10:55:05.646Z,97.54
2018-12-20T10:56:05.388Z,96.17
2018-12-20T10:57:05.627Z,95.03
2018-12-20T10:58:05.603Z,93.8
2018-12-20T10:59:05.584Z,92.28
2018-12-20T11:00:05.570Z,91.52
2018-12-20T11:01:05.553Z,90.39
2018-12-20T11:02:05.539Z,88.96
2018-12-20T11:03:05.525Z,89.63
2018-12-20T11:04:05.737Z,87.73
2018-12-20T11:05:05.493Z,88.02
2018-12-20T11:06:05.478Z,89.44
2018-12-20T11:07:05.457Z,90.39
2018-12-20T11:08:05.449Z,91.33
2018-12-20T11:09:05.429Z,92
2018-12-20T11:10:05.410Z,92.19
2018-12-20T11:11:05.418Z,91.9
2018-12-20T11:12:05.383Z,92.38
2018-12-20T11:13:05.365Z,90.1
2018-12-20T11:14:05.349Z,90.01
2018-12-20T11:15:05.333Z,92.09
2018-12-20T11:16:05.315Z,94.13
2018-12-20T11:17:05.303Z,98.87
2018-12-20T11:18:05.285Z,99.99
2018-12-20T11:19:05.270Z,99.53
2018-12-20T11:20:05.255Z,99.25
2018-12-20T11:21:05.240Z,98.77
2018-12-20T11:22:05.225Z,98.49
2018-12-20T11:23:05.212Z,99.53
2018-12-20T11:24:05.194Z,98.72
2018-12-20T11:25:05.180Z,99.44
2018-12-20T11:26:05.261Z,98.49
2018-12-20T11:27:04.897Z,99.06
2018-12-20T11:28:05.129Z,99.99
2018-12-20T11:29:05.113Z,99.99
2018-12-20T11:30:04.850Z,99.99
2018-12-20T11:31:05.082Z,99.99
2018-12-20T11:32:05.069Z,99.01
2018-12-20T11:33:04.804Z,98.06
2018-12-20T11:34:05.035Z,96.45
2018-12-20T11:35:05.019Z,95.22
2018-12-20T11:36:05.009Z,93.61
2018-12-20T11:37:04.989Z,92.57
2018-12-20T11:38:04.975Z,92.47
2018-12-20T11:39:10.949Z,91.62
2018-12-20T11:40:04.941Z,91.14
2018-12-20T11:41:04.929Z,90.01
2018-12-20T11:42:04.909Z,88.49
2018-12-20T11:43:04.895Z,89.72
2018-12-20T11:44:04.878Z,90.67
2018-12-20T11:45:04.860Z,91.43
2018-12-20T11:46:04.850Z,92.47
2018-12-20T11:47:04.833Z,92.19
2018-12-20T11:48:04.858Z,92.28
2018-12-20T11:49:04.798Z,92.66
2018-12-20T11:50:04.789Z,92.57
2018-12-20T11:51:04.769Z,92.85
2018-12-20T11:52:04.750Z,93.8
2018-12-20T11:53:04.736Z,93.89
2018-12-20T11:54:04.721Z,94.27
2018-12-20T11:55:04.705Z,95.41
2018-12-20T11:56:04.443Z,95.69
2018-12-20T11:57:04.673Z,96.07
2018-12-20T11:58:04.658Z,95.69
2018-12-20T11:59:04.654Z,97.02
2018-12-20T12:00:04.629Z,96.55
2018-12-20T12:01:04.607Z,98.16
2018-12-20T12:02:04.590Z,98.06
2018-12-20T12:03:04.586Z,97.49
2018-12-20T12:04:04.560Z,97.11
2018-12-20T12:05:04.548Z,97.3
2018-12-20T12:06:04.527Z,97.21
2018-12-20T12:07:04.519Z,97.21
2018-12-20T12:08:04.496Z,96.07
2018-12-20T12:09:04.486Z,96.17
2018-12-20T12:10:05.434Z,95.79
2018-12-20T12:11:04.452Z,94.84
2018-12-20T12:12:04.434Z,93.89
2018-12-20T12:13:04.413Z,93.8
2018-12-20T12:14:04.153Z,94.46
2018-12-20T12:15:04.384Z,94.93
2018-12-20T12:16:04.375Z,93.89
2018-12-20T12:17:04.355Z,93.99
2018-12-20T12:18:04.340Z,95.12
2018-12-20T12:19:04.319Z,95.41
2018-12-20T12:20:04.313Z,95.41
2018-12-20T12:21:04.040Z,94.74
2018-12-20T12:22:04.278Z,93.7
2018-12-20T12:23:04.255Z,93.61
2018-12-20T12:24:04.243Z,93.13
2018-12-20T12:25:04.225Z,92.85
2018-12-20T12:26:04.208Z,93.04
2018-12-20T12:27:04.193Z,93.13
2018-12-20T12:28:04.178Z,92.57
2018-12-20T12:29:04.166Z,92.66
2018-12-20T12:30:03.898Z,91.52
2018-12-20T12:31:04.128Z,91.24
2018-12-20T12:32:04.116Z,91.24
2018-12-20T12:33:04.095Z,90.77
2018-12-20T12:34:04.079Z,90.2
2018-12-20T12:35:04.068Z,89.63
2018-12-20T12:36:04.046Z,87.73
2018-12-20T12:37:04.030Z,86.69
2018-12-20T12:38:04.015Z,85.93
2018-12-20T12:39:04.003Z,85.17
2018-12-20T12:40:03.981Z,84.89
2018-12-20T12:41:03.966Z,84.99
2018-12-20T12:42:03.952Z,86.12
2018-12-20T12:43:03.933Z,86.41
2018-12-20T12:44:03.921Z,87.35
2018-12-20T12:45:03.903Z,87.83
2018-12-20T12:46:03.889Z,87.26
2018-12-20T12:47:03.871Z,86.6
2018-12-20T12:48:06.243Z,85.93
2018-12-20T12:49:03.839Z,84.89
2018-12-20T12:50:03.822Z,84.09
2018-12-20T12:51:03.805Z,82.67
2018-12-20T12:52:03.795Z,81.92
2018-12-20T12:53:03.775Z,81.48
2018-12-20T12:54:03.510Z,80.87
2018-12-20T12:55:03.741Z,79.87